createdAt,value
2018-05-09T00:00:35.847Z,0.00
2018-05-09T00:01:35.808Z,0.00
2018-05-09T00:02:35.767Z,0.00
2018-05-09T00:03:35.728Z,0.00
2018-05-09T00:04:35.687Z,0.00
2018-05-09T00:05:35.646Z,0.00
2018-05-09T00:06:35.610Z,0.00
2018-05-09T00:07:35.569Z,0.00
2018-05-09T00:08:35.528Z,0.00
2018-05-09T00:09:35.487Z,0.00
2018-05-09T00:10:35.453Z,0.00
2018-05-09T00:11:35.408Z,0.00
2018-05-09T00:12:35.368Z,0.00
2018-05-09T00:13:35.331Z,0.00
2018-05-09T00:14:35.292Z,0.00
2018-05-09T00:15:35.248Z,0.00
2018-05-09T00:16:35.241Z,0.00
2018-05-09T00:17:35.173Z,0.00
2018-05-09T00:18:35.132Z,0.00
2018-05-09T00:19:35.090Z,0.00
2018-05-09T00:20:35.065Z,0.00
2018-05-09T00:21:35.022Z,0.00
2018-05-09T00:22:34.988Z,0.00
2018-05-09T00:23:34.938Z,0.00
2018-05-09T00:24:34.891Z,0.00
2018-05-09T00:25:34.851Z,0.00
2018-05-09T00:26:34.809Z,0.00
2018-05-09T00:27:34.769Z,0.00
2018-05-09T00:28:34.729Z,0.00
2018-05-09T00:29:34.692Z,0.00
2018-05-09T00:30:34.652Z,0.00
2018-05-09T00:31:34.614Z,0.00
2018-05-09T00:32:34.572Z,0.00
2018-05-09T00:33:34.544Z,0.00
2018-05-09T00:34:34.504Z,0.00
2018-05-09T00:35:34.455Z,0.00
2018-05-09T00:36:34.414Z,0.00
2018-05-09T00:37:34.377Z,0.00
2018-05-09T00:38:34.334Z,0.00
2018-05-09T00:39:34.295Z,0.00
2018-05-09T00:40:34.256Z,0.00
2018-05-09T00:41:34.217Z,0.00
2018-05-09T00:42:34.176Z,0.00
2018-05-09T00:43:34.137Z,0.00
2018-05-09T00:44:34.095Z,0.00
2018-05-09T00:45:34.055Z,0.00
2018-05-09T00:46:34.016Z,0.00
2018-05-09T00:47:33.975Z,0.00
2018-05-09T00:48:33.935Z,0.00
2018-05-09T00:49:33.896Z,0.00
2018-05-09T00:50:33.856Z,0.00
2018-05-09T00:51:33.816Z,0.00
2018-05-09T00:52:33.775Z,0.00
2018-05-09T00:53:33.743Z,0.00
2018-05-09T00:54:33.696Z,0.00
2018-05-09T00:55:33.656Z,0.00
2018-05-09T00:56:33.616Z,0.00
2018-05-09T00:57:33.576Z,0.00
2018-05-09T00:58:33.541Z,0.00
2018-05-09T00:59:33.497Z,0.00
2018-05-09T01:00:33.457Z,0.00
2018-05-09T01:01:33.421Z,0.00
2018-05-09T01:02:33.381Z,0.00
2018-05-09T01:03:33.337Z,0.00
2018-05-09T01:04:33.296Z,0.00
2018-05-09T01:05:33.260Z,0.00
2018-05-09T01:06:33.221Z,0.00
2018-05-09T01:07:33.177Z,0.00
2018-05-09T01:08:33.136Z,0.00
2018-05-09T01:09:33.096Z,0.00
2018-05-09T01:10:33.060Z,0.00
2018-05-09T01:11:33.020Z,0.00
2018-05-09T01:12:32.999Z,0.00
2018-05-09T01:13:32.937Z,0.00
2018-05-09T01:14:32.907Z,0.00
2018-05-09T01:15:32.857Z,0.00
2018-05-09T01:16:32.817Z,0.00
2018-05-09T01:17:32.780Z,0.00
2018-05-09T01:18:32.740Z,0.00
2018-05-09T01:19:32.699Z,0.00
2018-05-09T01:20:32.658Z,0.00
2018-05-09T01:21:32.617Z,0.00
2018-05-09T01:22:32.580Z,0.00
2018-05-09T01:23:32.542Z,0.00
2018-05-09T01:24:32.496Z,0.00
2018-05-09T01:25:32.456Z,0.00
2018-05-09T01:26:32.418Z,0.00
2018-05-09T01:27:32.380Z,0.00
2018-05-09T01:28:32.338Z,0.00
2018-05-09T01:29:32.298Z,0.00
2018-05-09T01:30:32.257Z,0.00
2018-05-09T01:31:32.217Z,0.00
2018-05-09T01:32:32.176Z,0.00
2018-05-09T01:33:32.138Z,0.00
2018-05-09T01:34:32.094Z,0.00
2018-05-09T01:35:32.065Z,0.00
2018-05-09T01:36:32.015Z,0.00
2018-05-09T01:37:31.975Z,0.00
2018-05-09T01:38:31.934Z,0.00
2018-05-09T01:39:31.894Z,0.00
2018-05-09T01:40:31.857Z,0.00
2018-05-09T01:41:31.812Z,0.00
2018-05-09T01:42:31.775Z,0.00
2018-05-09T01:43:31.734Z,0.00
2018-05-09T01:44:31.691Z,0.00
2018-05-09T01:45:31.650Z,0.00
2018-05-09T01:46:31.617Z,0.00
2018-05-09T01:47:31.572Z,0.00
2018-05-09T01:48:31.529Z,0.00
2018-05-09T01:49:31.490Z,0.00
2018-05-09T01:50:31.449Z,0.00
2018-05-09T01:51:31.410Z,0.00
2018-05-09T01:52:31.368Z,0.00
2018-05-09T01:53:31.330Z,0.00
2018-05-09T01:54:31.286Z,0.00
2018-05-09T01:55:31.246Z,0.00
2018-05-09T01:56:31.207Z,0.00
2018-05-09T01:57:31.165Z,0.00
2018-05-09T01:58:31.158Z,0.00
2018-05-09T01:59:31.083Z,0.00
2018-05-09T02:00:31.043Z,0.00
2018-05-09T02:01:31.006Z,0.00
2018-05-09T02:02:30.962Z,0.00
2018-05-09T02:03:30.921Z,0.00
2018-05-09T02:04:30.880Z,0.00
2018-05-09T02:05:30.839Z,0.00
2018-05-09T02:06:30.799Z,0.00
2018-05-09T02:07:30.760Z,0.00
2018-05-09T02:08:30.718Z,0.00
2018-05-09T02:09:30.676Z,0.00
2018-05-09T02:10:30.637Z,0.00
2018-05-09T02:11:30.595Z,0.00
2018-05-09T02:12:30.553Z,0.00
2018-05-09T02:13:30.512Z,0.00
2018-05-09T02:14:30.473Z,0.00
2018-05-09T02:15:30.429Z,0.00
2018-05-09T02:16:30.389Z,0.00
2018-05-09T02:17:30.411Z,0.00
2018-05-09T02:18:30.311Z,0.00
2018-05-09T02:19:30.269Z,0.00
2018-05-09T02:20:30.224Z,0.00
2018-05-09T02:21:30.185Z,0.00
2018-05-09T02:22:30.145Z,0.00
2018-05-09T02:23:30.106Z,0.00
2018-05-09T02:24:30.062Z,0.00
2018-05-09T02:25:30.018Z,0.00
2018-05-09T02:26:29.977Z,0.00
2018-05-09T02:27:29.941Z,0.00
2018-05-09T02:28:29.894Z,0.00
2018-05-09T02:29:29.861Z,0.00
2018-05-09T02:30:29.849Z,0.00
2018-05-09T02:31:29.846Z,0.00
2018-05-09T02:32:29.804Z,0.00
2018-05-09T02:33:29.689Z,0.00
2018-05-09T02:34:29.649Z,0.00
2018-05-09T02:35:29.607Z,0.00
2018-05-09T02:36:29.569Z,0.00
2018-05-09T02:37:29.526Z,0.00
2018-05-09T02:38:29.484Z,0.00
2018-05-09T02:39:29.441Z,0.00
2018-05-09T02:40:29.401Z,0.00
2018-05-09T02:41:29.361Z,0.00
2018-05-09T02:42:29.319Z,0.00
2018-05-09T02:43:29.278Z,0.00
2018-05-09T02:44:29.239Z,0.00
2018-05-09T02:45:29.194Z,0.00
2018-05-09T02:46:29.155Z,0.00
2018-05-09T02:47:29.112Z,0.00
2018-05-09T02:48:29.077Z,0.00
2018-05-09T02:49:29.029Z,0.00
2018-05-09T02:50:29.002Z,0.00
2018-05-09T02:51:28.951Z,0.00
2018-05-09T02:52:28.904Z,0.00
2018-05-09T02:53:28.864Z,0.00
2018-05-09T02:54:28.824Z,0.00
2018-05-09T02:55:28.781Z,0.00
2018-05-09T02:56:28.739Z,0.00
2018-05-09T02:57:28.699Z,0.00
2018-05-09T02:58:28.661Z,0.00
2018-05-09T02:59:28.615Z,0.00
2018-05-09T03:00:28.576Z,0.00
2018-05-09T03:01:28.532Z,0.00
2018-05-09T03:02:28.497Z,0.00
2018-05-09T03:03:28.453Z,0.00
2018-05-09T03:04:28.408Z,0.00
2018-05-09T03:05:28.367Z,0.00
2018-05-09T03:06:28.327Z,0.00
2018-05-09T03:07:28.287Z,0.00
2018-05-09T03:08:28.255Z,0.00
2018-05-09T03:09:28.199Z,0.00
2018-05-09T03:10:28.161Z,0.00
2018-05-09T03:11:28.122Z,0.00
2018-05-09T03:12:28.082Z,0.00
2018-05-09T03:13:28.048Z,0.00
2018-05-09T03:14:27.993Z,0.00
2018-05-09T03:15:27.954Z,0.00
2018-05-09T03:16:27.911Z,0.00
2018-05-09T03:17:27.865Z,0.00
2018-05-09T03:18:27.830Z,0.00
2018-05-09T03:19:27.783Z,0.00
2018-05-09T03:20:27.784Z,0.00
2018-05-09T03:21:27.699Z,4.00
2018-05-09T03:22:27.660Z,4.00
2018-05-09T03:23:27.614Z,0.00
2018-05-09T03:24:27.572Z,4.00
2018-05-09T03:25:27.532Z,4.00
2018-05-09T03:26:27.491Z,0.00
2018-05-09T03:27:27.448Z,4.00
2018-05-09T03:28:27.418Z,8.00
2018-05-09T03:29:27.363Z,4.00
2018-05-09T03:30:27.322Z,8.00
2018-05-09T03:31:27.282Z,8.00
2018-05-09T03:32:27.241Z,8.00
2018-05-09T03:33:27.197Z,8.00
2018-05-09T03:34:27.156Z,12.00
2018-05-09T03:35:27.115Z,16.00
2018-05-09T03:36:27.075Z,16.00
2018-05-09T03:37:27.067Z,20.00
2018-05-09T03:38:27.036Z,20.00
2018-05-09T03:39:26.949Z,24.00
2018-05-09T03:40:26.916Z,24.00
2018-05-09T03:41:26.860Z,32.00
2018-05-09T03:42:26.821Z,32.00
2018-05-09T03:43:26.778Z,36.00
2018-05-09T03:44:26.738Z,40.00
2018-05-09T03:45:26.694Z,44.00
2018-05-09T03:46:26.665Z,48.00
2018-05-09T03:47:26.614Z,56.00
2018-05-09T03:48:26.574Z,60.00
2018-05-09T03:49:26.528Z,64.00
2018-05-09T03:50:26.485Z,72.00
2018-05-09T03:51:26.442Z,80.00
2018-05-09T03:52:26.401Z,84.00
2018-05-09T03:53:26.364Z,96.00
2018-05-09T03:54:26.316Z,104.00
2018-05-09T03:55:26.275Z,108.00
2018-05-09T03:56:26.232Z,120.00
2018-05-09T03:57:26.193Z,124.00
2018-05-09T03:58:26.150Z,136.00
2018-05-09T03:59:26.145Z,148.00
2018-05-09T04:00:26.066Z,156.00
2018-05-09T04:01:26.020Z,164.00
2018-05-09T04:02:25.979Z,176.00
2018-05-09T04:03:25.937Z,184.00
2018-05-09T04:04:25.899Z,196.00
2018-05-09T04:05:25.861Z,204.00
2018-05-09T04:06:25.816Z,216.00
2018-05-09T04:07:25.770Z,224.00
2018-05-09T04:08:25.731Z,236.00
2018-05-09T04:09:25.737Z,248.00
2018-05-09T04:10:25.646Z,260.00
2018-05-09T04:11:25.600Z,268.00
2018-05-09T04:12:25.557Z,280.00
2018-05-09T04:13:25.516Z,292.00
2018-05-09T04:14:25.474Z,304.00
2018-05-09T04:15:25.431Z,316.00
2018-05-09T04:16:25.390Z,328.00
2018-05-09T04:17:25.346Z,340.00
2018-05-09T04:18:25.304Z,352.00
2018-05-09T04:19:25.262Z,364.00
2018-05-09T04:20:25.224Z,376.00
2018-05-09T04:21:25.182Z,384.00
2018-05-09T04:22:25.170Z,396.00
2018-05-09T04:23:25.091Z,408.00
2018-05-09T04:24:25.049Z,420.00
2018-05-09T04:25:25.010Z,432.00
2018-05-09T04:26:24.975Z,444.00
2018-05-09T04:27:24.923Z,456.00
2018-05-09T04:28:24.894Z,468.00
2018-05-09T04:29:24.844Z,480.00
2018-05-09T04:30:24.803Z,492.00
2018-05-09T04:31:24.754Z,504.00
2018-05-09T04:32:24.713Z,516.00
2018-05-09T04:33:24.668Z,524.00
2018-05-09T04:34:24.628Z,536.00
2018-05-09T04:35:24.591Z,544.00
2018-05-09T04:36:24.543Z,560.00
2018-05-09T04:37:24.499Z,568.00
2018-05-09T04:38:24.461Z,576.00
2018-05-09T04:39:24.415Z,592.00
2018-05-09T04:40:24.376Z,600.00
2018-05-09T04:41:24.334Z,612.00
2018-05-09T04:42:24.290Z,620.00
2018-05-09T04:43:24.247Z,632.00
2018-05-09T04:44:24.203Z,640.00
2018-05-09T04:45:24.168Z,652.00
2018-05-09T04:46:24.129Z,660.00
2018-05-09T04:47:24.078Z,668.00
2018-05-09T04:48:24.037Z,680.00
2018-05-09T04:49:23.993Z,688.00
2018-05-09T04:50:23.950Z,696.00
2018-05-09T04:51:23.920Z,708.00
2018-05-09T04:52:23.864Z,716.00
2018-05-09T04:53:23.821Z,724.00
2018-05-09T04:54:23.781Z,736.00
2018-05-09T04:55:23.841Z,740.00
2018-05-09T04:56:23.697Z,752.00
2018-05-09T04:57:23.653Z,756.00
2018-05-09T04:58:23.612Z,768.00
2018-05-09T04:59:23.570Z,776.00
2018-05-09T05:00:23.528Z,784.00
2018-05-09T05:01:23.490Z,792.00
2018-05-09T05:02:23.444Z,800.00
2018-05-09T05:03:23.403Z,808.00
2018-05-09T05:04:23.362Z,820.00
2018-05-09T05:05:23.317Z,824.00
2018-05-09T05:06:23.276Z,832.00
2018-05-09T05:07:23.247Z,840.00
2018-05-09T05:08:23.189Z,852.00
2018-05-09T05:09:23.145Z,856.00
2018-05-09T05:10:23.107Z,868.00
2018-05-09T05:11:23.066Z,876.00
2018-05-09T05:12:23.020Z,884.00
2018-05-09T05:13:22.977Z,888.00
2018-05-09T05:14:22.938Z,900.00
2018-05-09T05:15:22.893Z,908.00
2018-05-09T05:16:22.851Z,916.00
2018-05-09T05:17:22.810Z,924.00
2018-05-09T05:18:22.769Z,932.00
2018-05-09T05:19:22.731Z,936.00
2018-05-09T05:20:22.684Z,944.00
2018-05-09T05:21:22.640Z,952.00
2018-05-09T05:22:22.605Z,960.00
2018-05-09T05:23:22.558Z,964.00
2018-05-09T05:24:22.515Z,976.00
2018-05-09T05:25:22.474Z,984.00
2018-05-09T05:26:22.432Z,988.00
2018-05-09T05:27:22.390Z,996.00
2018-05-09T05:28:22.349Z,1004.00
2018-05-09T05:29:22.306Z,1008.00
2018-05-09T05:30:22.264Z,1016.00
2018-05-09T05:31:22.223Z,1020.00
2018-05-09T05:32:22.181Z,1028.00
2018-05-09T05:33:22.141Z,1032.00
2018-05-09T05:34:22.097Z,1040.00
2018-05-09T05:35:22.056Z,1044.00
2018-05-09T05:36:22.012Z,1052.00
2018-05-09T05:37:21.975Z,1064.00
2018-05-09T05:38:21.933Z,1068.00
2018-05-09T05:39:21.888Z,1072.00
2018-05-09T05:40:21.877Z,1080.00
2018-05-09T05:41:21.804Z,1092.00
2018-05-09T05:42:21.764Z,1096.00
2018-05-09T05:43:21.721Z,1104.00
2018-05-09T05:44:21.678Z,1104.00
2018-05-09T05:45:21.689Z,1112.00
2018-05-09T05:46:21.600Z,1116.00
2018-05-09T05:47:21.563Z,1124.00
2018-05-09T05:48:21.511Z,1128.00
2018-05-09T05:49:21.473Z,1132.00
2018-05-09T05:50:21.431Z,1140.00
2018-05-09T05:51:21.390Z,1144.00
2018-05-09T05:52:21.353Z,1148.00
2018-05-09T05:53:21.305Z,1156.00
2018-05-09T05:54:21.266Z,1160.00
2018-05-09T05:55:21.227Z,1164.00
2018-05-09T05:56:21.184Z,1172.00
2018-05-09T05:57:21.140Z,1176.00
2018-05-09T05:58:21.099Z,1184.00
2018-05-09T05:59:21.058Z,1184.00
2018-05-09T06:00:21.016Z,1192.00
2018-05-09T06:01:20.978Z,1200.00
2018-05-09T06:02:20.932Z,1204.00
2018-05-09T06:03:20.892Z,1208.00
2018-05-09T06:04:20.851Z,1220.00
2018-05-09T06:05:20.816Z,1220.00
2018-05-09T06:06:20.822Z,1224.00
2018-05-09T06:07:20.730Z,1228.00
2018-05-09T06:08:20.685Z,1232.00
2018-05-09T06:09:20.644Z,1236.00
2018-05-09T06:10:20.605Z,1240.00
2018-05-09T06:11:20.563Z,1244.00
2018-05-09T06:12:20.521Z,1252.00
2018-05-09T06:13:20.481Z,1252.00
2018-05-09T06:14:20.441Z,1256.00
2018-05-09T06:15:20.401Z,1260.00
2018-05-09T06:16:20.361Z,1264.00
2018-05-09T06:17:20.371Z,1268.00
2018-05-09T06:18:20.278Z,1276.00
2018-05-09T06:19:20.235Z,1280.00
2018-05-09T06:20:20.196Z,1284.00
2018-05-09T06:21:20.154Z,1288.00
2018-05-09T06:22:20.113Z,1296.00
2018-05-09T06:23:20.114Z,1304.00
2018-05-09T06:24:20.093Z,1308.00
2018-05-09T06:25:19.991Z,1316.00
2018-05-09T06:26:19.955Z,1324.00
2018-05-09T06:27:19.909Z,1328.00
2018-05-09T06:28:19.868Z,1332.00
2018-05-09T06:29:19.830Z,1340.00
2018-05-09T06:30:19.787Z,1344.00
2018-05-09T06:31:19.751Z,1352.00
2018-05-09T06:32:19.705Z,1356.00
2018-05-09T06:33:19.667Z,1364.00
2018-05-09T06:34:19.626Z,1368.00
2018-05-09T06:35:19.588Z,1376.00
2018-05-09T06:36:19.544Z,1384.00
2018-05-09T06:37:19.504Z,1388.00
2018-05-09T06:38:19.464Z,1392.00
2018-05-09T06:39:19.427Z,1404.00
2018-05-09T06:40:19.382Z,1408.00
2018-05-09T06:41:19.342Z,1416.00
2018-05-09T06:42:19.302Z,1424.00
2018-05-09T06:43:19.263Z,1432.00
2018-05-09T06:44:19.223Z,1440.00
2018-05-09T06:45:19.184Z,1448.00
2018-05-09T06:46:19.149Z,1460.00
2018-05-09T06:47:19.102Z,1472.00
2018-05-09T06:48:19.069Z,1480.00
2018-05-09T06:49:19.021Z,1488.00
2018-05-09T06:50:18.984Z,1500.00
2018-05-09T06:51:18.941Z,1508.00
2018-05-09T06:52:18.908Z,1516.00
2018-05-09T06:53:18.860Z,1532.00
2018-05-09T06:54:18.832Z,1540.00
2018-05-09T06:55:18.779Z,1552.00
2018-05-09T06:56:18.745Z,1560.00
2018-05-09T06:57:18.707Z,1572.00
2018-05-09T06:58:18.661Z,1580.00
2018-05-09T06:59:18.623Z,1588.00
2018-05-09T07:00:18.580Z,1600.00
2018-05-09T07:01:18.544Z,1608.00
2018-05-09T07:02:18.502Z,1616.00
2018-05-09T07:03:18.465Z,1628.00
2018-05-09T07:04:18.421Z,1636.00
2018-05-09T07:05:18.383Z,1640.00
2018-05-09T07:06:18.451Z,1648.00
2018-05-09T07:07:18.304Z,1660.00
2018-05-09T07:08:18.265Z,1668.00
2018-05-09T07:09:18.227Z,1684.00
2018-05-09T07:10:18.183Z,1688.00
2018-05-09T07:11:18.146Z,1696.00
2018-05-09T07:12:18.106Z,1708.00
2018-05-09T07:13:18.075Z,1720.00
2018-05-09T07:14:18.027Z,1732.00
2018-05-09T07:15:17.988Z,1744.00
2018-05-09T07:16:17.950Z,1756.00
2018-05-09T07:17:17.910Z,1764.00
2018-05-09T07:18:17.869Z,1776.00
2018-05-09T07:19:17.837Z,1788.00
2018-05-09T07:20:17.790Z,1808.00
2018-05-09T07:21:17.751Z,1824.00
2018-05-09T07:22:17.738Z,1840.00
2018-05-09T07:23:17.764Z,1856.00
2018-05-09T07:24:17.635Z,1872.00
2018-05-09T07:25:17.596Z,1888.00
2018-05-09T07:26:17.562Z,1904.00
2018-05-09T07:27:17.518Z,1912.00
2018-05-09T07:28:17.481Z,1932.00
2018-05-09T07:29:17.443Z,1952.00
2018-05-09T07:30:17.490Z,1968.00
2018-05-09T07:31:17.362Z,1984.00
2018-05-09T07:32:17.322Z,2008.00
2018-05-09T07:33:17.284Z,2028.00
2018-05-09T07:34:17.247Z,2048.00
2018-05-09T07:35:17.216Z,2072.00
2018-05-09T07:36:17.169Z,2088.00
2018-05-09T07:37:17.130Z,2104.00
2018-05-09T07:38:17.091Z,2120.00
2018-05-09T07:39:17.058Z,2136.00
2018-05-09T07:40:17.014Z,2156.00
2018-05-09T07:41:16.979Z,2176.00
2018-05-09T07:42:16.968Z,2200.00
2018-05-09T07:43:16.899Z,2220.00
2018-05-09T07:44:16.869Z,2252.00
2018-05-09T07:45:16.825Z,2268.00
2018-05-09T07:46:16.794Z,2296.00
2018-05-09T07:47:16.746Z,2316.00
2018-05-09T07:48:16.708Z,2336.00
2018-05-09T07:50:16.637Z,2380.00
2018-05-09T07:51:16.600Z,2396.00
2018-05-09T07:52:16.566Z,2416.00
2018-05-09T07:53:16.518Z,2436.00
2018-05-09T07:54:16.481Z,2452.00
2018-05-09T07:55:16.445Z,2468.00
2018-05-09T07:56:16.409Z,2488.00
2018-05-09T07:57:16.370Z,2504.00
2018-05-09T07:58:16.337Z,2524.00
2018-05-09T07:59:16.300Z,2548.00
2018-05-09T08:00:16.264Z,2564.00
2018-05-09T08:01:16.228Z,2576.00
2018-05-09T08:02:16.190Z,2588.00
2018-05-09T08:03:16.154Z,2600.00
2018-05-09T08:04:16.115Z,2608.00
2018-05-09T08:05:16.080Z,2620.00
2018-05-09T08:06:16.048Z,2640.00
2018-05-09T08:07:16.006Z,2656.00
2018-05-09T08:08:15.971Z,2676.00
2018-05-09T08:09:15.936Z,2688.00
2018-05-09T08:10:15.896Z,2700.00
2018-05-09T08:11:15.870Z,2712.00
2018-05-09T08:12:15.827Z,2708.00
2018-05-09T08:13:15.793Z,2712.00
2018-05-09T08:14:15.754Z,2712.00
2018-05-09T08:15:15.717Z,2716.00
2018-05-09T08:16:15.682Z,2740.00
2018-05-09T08:17:15.643Z,2760.00
2018-05-09T08:18:15.610Z,2768.00
2018-05-09T08:19:15.584Z,2784.00
2018-05-09T08:20:15.537Z,2800.00
2018-05-09T08:21:15.501Z,2816.00
2018-05-09T08:22:15.469Z,2828.00
2018-05-09T08:23:15.431Z,2836.00
2018-05-09T08:24:15.396Z,2848.00
2018-05-09T08:25:15.378Z,2860.00
2018-05-09T08:26:15.327Z,2876.00
2018-05-09T08:27:15.292Z,2888.00
2018-05-09T08:28:15.258Z,2900.00
2018-05-09T08:29:15.223Z,2900.00
2018-05-09T08:30:15.247Z,2908.00
2018-05-09T08:31:15.151Z,2920.00
2018-05-09T08:32:15.112Z,2928.00
2018-05-09T08:33:15.079Z,2944.00
2018-05-09T08:34:15.042Z,2960.00
2018-05-09T08:35:15.007Z,2964.00
2018-05-09T08:36:15.073Z,2976.00
2018-05-09T08:37:14.981Z,2972.00
2018-05-09T08:38:14.911Z,2984.00
2018-05-09T08:39:14.877Z,3000.00
2018-05-09T08:40:14.835Z,3012.00
2018-05-09T08:41:14.811Z,3020.00
2018-05-09T08:42:14.764Z,3024.00
2018-05-09T08:43:14.745Z,3032.00
2018-05-09T08:44:14.697Z,3044.00
2018-05-09T08:45:14.658Z,3044.00
2018-05-09T08:46:14.626Z,3052.00
2018-05-09T08:47:14.590Z,3060.00
2018-05-09T08:48:14.561Z,3076.00
2018-05-09T08:49:14.606Z,3084.00
2018-05-09T08:50:14.493Z,3100.00
2018-05-09T08:51:14.454Z,3096.00
2018-05-09T08:52:14.419Z,3104.00
2018-05-09T08:53:14.391Z,3112.00
2018-05-09T08:54:14.351Z,3128.00
2018-05-09T08:55:14.315Z,3140.00
2018-05-09T08:56:14.280Z,3144.00
2018-05-09T08:57:14.244Z,3152.00
2018-05-09T08:58:14.210Z,3156.00
2018-05-09T08:59:14.177Z,3168.00
2018-05-09T09:00:14.140Z,3184.00
2018-05-09T09:01:14.105Z,3200.00
2018-05-09T09:02:14.079Z,3216.00
2018-05-09T09:03:14.043Z,3232.00
2018-05-09T09:04:14.010Z,3248.00
2018-05-09T09:05:13.977Z,3272.00
2018-05-09T09:06:13.938Z,3280.00
2018-05-09T09:07:13.904Z,3288.00
2018-05-09T09:08:13.867Z,3304.00
2018-05-09T09:09:13.837Z,3316.00
2018-05-09T09:10:13.805Z,3328.00
2018-05-09T09:11:13.766Z,3340.00
2018-05-09T09:12:13.786Z,3356.00
2018-05-09T09:13:13.699Z,3364.00
2018-05-09T09:14:13.666Z,3380.00
2018-05-09T09:15:13.721Z,3388.00
2018-05-09T09:16:13.596Z,3404.00
2018-05-09T09:17:13.565Z,3420.00
2018-05-09T09:18:13.530Z,3436.00
2018-05-09T09:19:13.500Z,3448.00
2018-05-09T09:20:13.465Z,3464.00
2018-05-09T09:21:13.429Z,3484.00
2018-05-09T09:22:13.398Z,3504.00
2018-05-09T09:23:13.363Z,3512.00
2018-05-09T09:24:13.330Z,3528.00
2018-05-09T09:25:13.296Z,3552.00
2018-05-09T09:26:13.265Z,3564.00
2018-05-09T09:27:13.231Z,3584.00
2018-05-09T09:28:13.194Z,3600.00
2018-05-09T09:29:13.212Z,3624.00
2018-05-09T09:30:13.129Z,3656.00
2018-05-09T09:31:13.100Z,3692.00
2018-05-09T09:32:13.065Z,3716.00
2018-05-09T09:33:13.031Z,3740.00
2018-05-09T09:34:13.003Z,3764.00
2018-05-09T09:35:12.965Z,3784.00
2018-05-09T09:36:12.939Z,3792.00
2018-05-09T09:37:12.899Z,3800.00
2018-05-09T09:38:12.866Z,3804.00
2018-05-09T09:39:12.835Z,3824.00
2018-05-09T09:40:12.803Z,3828.00
2018-05-09T09:41:12.771Z,3828.00
2018-05-09T09:42:12.736Z,3848.00
2018-05-09T09:43:12.705Z,3868.00
2018-05-09T09:44:12.671Z,3880.00
2018-05-09T09:45:12.638Z,3872.00
2018-05-09T09:46:12.607Z,3848.00
2018-05-09T09:47:12.575Z,3824.00
2018-05-09T09:48:12.542Z,3812.00
2018-05-09T09:49:12.510Z,3812.00
2018-05-09T09:50:12.478Z,3804.00
2018-05-09T09:51:12.442Z,3788.00
2018-05-09T09:52:12.411Z,3788.00
2018-05-09T09:53:12.378Z,3788.00
2018-05-09T09:54:12.344Z,3776.00
2018-05-09T09:55:12.317Z,3784.00
2018-05-09T09:56:12.287Z,3792.00
2018-05-09T09:57:12.273Z,3804.00
2018-05-09T09:58:12.220Z,3812.00
2018-05-09T09:59:12.185Z,3824.00
2018-05-09T10:00:12.156Z,3816.00
2018-05-09T10:01:12.129Z,3824.00
2018-05-09T10:02:12.092Z,3844.00
2018-05-09T10:03:12.056Z,3864.00
2018-05-09T10:04:12.064Z,3880.00
2018-05-09T10:05:11.989Z,3888.00
2018-05-09T10:06:11.957Z,3888.00
2018-05-09T10:07:11.941Z,3892.00
2018-05-09T10:08:11.892Z,3912.00
2018-05-09T10:09:11.863Z,3944.00
2018-05-09T10:10:11.842Z,3956.00
2018-05-09T10:11:11.799Z,3972.00
2018-05-09T10:12:11.768Z,3992.00
2018-05-09T10:13:11.733Z,4004.00
2018-05-09T10:14:11.698Z,4020.00
2018-05-09T10:15:11.669Z,4040.00
2018-05-09T10:16:11.727Z,4072.00
2018-05-09T10:17:11.601Z,4088.00
2018-05-09T10:18:11.573Z,4124.00
2018-05-09T10:19:11.537Z,4160.00
2018-05-09T10:20:11.514Z,4172.00
2018-05-09T10:21:11.471Z,4192.00
2018-05-09T10:22:11.443Z,4220.00
2018-05-09T10:23:11.440Z,4216.00
2018-05-09T10:24:11.374Z,4284.00
2018-05-09T10:25:11.345Z,4320.00
2018-05-09T10:26:11.312Z,4328.00
2018-05-09T10:27:11.281Z,4340.00
2018-05-09T10:28:11.245Z,4340.00
2018-05-09T10:29:11.215Z,4312.00
2018-05-09T10:30:11.183Z,4308.00
2018-05-09T10:31:11.149Z,4368.00
2018-05-09T10:32:11.116Z,4412.00
2018-05-09T10:33:11.089Z,4408.00
2018-05-09T10:34:11.053Z,4472.00
2018-05-09T10:35:11.022Z,4516.00
2018-05-09T10:36:10.991Z,4560.00
2018-05-09T10:37:10.956Z,4592.00
2018-05-09T10:38:10.931Z,4620.00
2018-05-09T10:39:10.893Z,4656.00
2018-05-09T10:40:10.858Z,4688.00
2018-05-09T10:41:10.835Z,4684.00
2018-05-09T10:42:10.798Z,4724.00
2018-05-09T10:43:10.765Z,4784.00
2018-05-09T10:44:10.738Z,4812.00
2018-05-09T10:45:10.700Z,4792.00
2018-05-09T10:46:10.667Z,4844.00
2018-05-09T10:47:10.635Z,4900.00
2018-05-09T10:48:10.602Z,4960.00
2018-05-09T10:49:10.571Z,4944.00
2018-05-09T10:50:10.543Z,5088.00
2018-05-09T10:51:10.508Z,5688.00
2018-05-09T10:52:10.475Z,6324.00
2018-05-09T10:53:10.442Z,6568.00
2018-05-09T10:54:10.413Z,6724.00
2018-05-09T10:55:10.380Z,6796.00
2018-05-09T10:56:10.348Z,6788.00
2018-05-09T10:57:10.334Z,6856.00
2018-05-09T10:58:10.285Z,6904.00
2018-05-09T10:59:10.255Z,7028.00
2018-05-09T11:00:10.222Z,7160.00
2018-05-09T11:01:10.192Z,7172.00
2018-05-09T11:02:10.171Z,7164.00
2018-05-09T11:03:10.129Z,7216.00
2018-05-09T11:04:10.096Z,7152.00
2018-05-09T11:05:10.104Z,6716.00
2018-05-09T11:06:10.033Z,5904.00
2018-05-09T11:07:10.005Z,5588.00
2018-05-09T11:08:09.977Z,5564.00
2018-05-09T11:09:09.992Z,5556.00
2018-05-09T11:10:09.937Z,5588.00
2018-05-09T11:12:09.858Z,5656.00
2018-05-09T11:13:09.818Z,5616.00
2018-05-09T11:14:09.789Z,5552.00
2018-05-09T11:15:09.759Z,5788.00
2018-05-09T11:16:09.733Z,5840.00
2018-05-09T11:17:09.703Z,6292.00
2018-05-09T11:18:09.673Z,2416.00
2018-05-09T11:19:09.643Z,2440.00
2018-05-09T11:20:09.622Z,6372.00
2018-05-09T11:21:09.613Z,6688.00
2018-05-09T11:22:09.551Z,6816.00
2018-05-09T11:23:09.522Z,6784.00
2018-05-09T11:24:09.493Z,6724.00
2018-05-09T11:25:09.460Z,4132.00
2018-05-09T11:26:09.434Z,4164.00
2018-05-09T11:27:09.406Z,4156.00
2018-05-09T11:28:09.375Z,4064.00
2018-05-09T11:29:09.346Z,4036.00
2018-05-09T11:30:09.317Z,4012.00
2018-05-09T11:31:09.287Z,3968.00
2018-05-09T11:32:09.254Z,4040.00
2018-05-09T11:33:09.244Z,4136.00
2018-05-09T11:34:09.194Z,4084.00
2018-05-09T11:35:09.164Z,4320.00
2018-05-09T11:36:09.135Z,4308.00
2018-05-09T11:37:09.124Z,4036.00
2018-05-09T11:39:09.047Z,4084.00
2018-05-09T11:40:09.017Z,3948.00
2018-05-09T11:41:08.989Z,3948.00
2018-05-09T11:42:08.959Z,3884.00
2018-05-09T11:43:08.932Z,3712.00
2018-05-09T11:44:08.898Z,3724.00
2018-05-09T11:45:08.876Z,3432.00
2018-05-09T11:46:08.852Z,3320.00
2018-05-09T11:47:08.820Z,3304.00
2018-05-09T11:48:08.785Z,3300.00
2018-05-09T11:49:08.753Z,3240.00
2018-05-09T11:50:08.724Z,3264.00
2018-05-09T11:51:08.696Z,3156.00
2018-05-09T11:52:08.669Z,3276.00
2018-05-09T11:53:08.664Z,3192.00
2018-05-09T11:54:08.611Z,3232.00
2018-05-09T11:55:08.584Z,3220.00
2018-05-09T11:56:08.553Z,3388.00
2018-05-09T11:57:08.530Z,3404.00
2018-05-09T11:58:08.498Z,3648.00
2018-05-09T11:59:08.469Z,3496.00
2018-05-09T12:00:08.442Z,3396.00
2018-05-09T12:01:08.413Z,3364.00
2018-05-09T12:02:08.400Z,3352.00
2018-05-09T12:03:08.356Z,3348.00
2018-05-09T12:04:08.325Z,1588.00
2018-05-09T12:05:08.300Z,2532.00
2018-05-09T12:06:08.273Z,2572.00
2018-05-09T12:07:08.242Z,3312.00
2018-05-09T12:08:08.213Z,3360.00
2018-05-09T12:09:08.189Z,3284.00
2018-05-09T12:10:08.155Z,3288.00
2018-05-09T12:11:08.127Z,3320.00
2018-05-09T12:12:08.097Z,3300.00
2018-05-09T12:13:08.070Z,3176.00
2018-05-09T12:14:08.041Z,3100.00
2018-05-09T12:15:08.017Z,3104.00
2018-05-09T12:16:07.987Z,3108.00
2018-05-09T12:17:07.955Z,3124.00
2018-05-09T12:18:07.927Z,3012.00
2018-05-09T12:19:07.899Z,2936.00
2018-05-09T12:20:07.868Z,2924.00
2018-05-09T12:21:07.846Z,2800.00
2018-05-09T12:22:07.818Z,2320.00
2018-05-09T12:23:07.791Z,1844.00
2018-05-09T12:24:07.757Z,1624.00
2018-05-09T12:25:07.731Z,1704.00
2018-05-09T12:26:07.704Z,1704.00
2018-05-09T12:27:07.672Z,1696.00
2018-05-09T12:28:07.648Z,1560.00
2018-05-09T12:29:07.627Z,1404.00
2018-05-09T12:30:07.592Z,824.00
2018-05-09T12:31:07.563Z,1004.00
2018-05-09T12:32:07.535Z,1640.00